Lacon, IL

9:56 AM CDT on May 28, 2017 (GMT -0500)
Lacon

Weather History for KC75 - February, 2013

Change the Weather History Date:

Friday, February 8, 2013

  Actual Average (KVYS) Record (KVYS)
Temperature  
Mean Temperature 28 °F -  
Max Temperature 31 °F 30 °F 53 °F (1966)
Min Temperature 24 °F 12 °F -40 °F (2016)
Degree Days  
Heating Degree Days 38    
Moisture  
Dew Point 23 °F    
Average Humidity 83    
Maximum Humidity 90    
Minimum Humidity 78    
Precipitation  
Precipitation 0.00 in - - ()
Sea Level Pressure  
Sea Level Pressure 30.28 in    
Wind  
Wind Speed 10 mph (NNW)    
Max Wind Speed 17 mph    
Max Gust Speed 23 mph    
Visibility 10 miles    
Events      
Averages and records for this station are not official NWS values.
T = Trace of Precipitation, MM = Missing Value Source: NWS Daily Summary

Daily Weather History Graph

Daily Weather History Graph

Search for Another Location

Airport or City:

Trip Planner

Search our weather history database for the weather conditions in past years. The results will help you decide how hot, cold, wet, or windy it might be!

Date:

Astronomy

Feb. 08, 2013 Rise Set
Actual Time 7:00 AM CST 5:23 PM CST
Civil Twilight 6:31 AM CST 5:52 PM CST
Nautical Twilight 5:59 AM CST 6:24 PM CST
Astronomical Twilight 5:26 AM CST 6:56 PM CST
Moon 5:29 AM CST (2/8) 3:56 PM CST (2/8)
Length of Visible Light 11h 20m
Length of Day
10h 23m
Waning Crescent, 3% of the Moon is Illuminated
Feb 8
Waning Crescent
Feb 10
New
Feb 17
First Quarter
Feb 25
Full
Mar 4
Last Quarter

Hourly Weather History & Observations

Time (CST) Temp. Windchill Dew Point Humidity Pressure Visibility Wind Dir Wind Speed Gust Speed Precip Events Conditions
12:15 AM 31.8 °F 22.8 °F 28.8 °F 88% 30.03 in 10.0 mi NW 11.5 mph 15.0 mph N/A   Overcast
12:35 AM 31.8 °F 21.0 °F 29.1 °F 90% 30.03 in 10.0 mi NW 16.1 mph 20.7 mph N/A   Overcast
12:55 AM 31.6 °F 20.7 °F 28.4 °F 88% 30.04 in 10.0 mi NW 16.1 mph 20.7 mph N/A   Overcast
1:15 AM 31.5 °F 22.9 °F 28.4 °F 88% 30.05 in 10.0 mi NW 10.4 mph 16.1 mph N/A   Overcast
1:35 AM 31.1 °F 20.5 °F 27.5 °F 87% 30.06 in 10.0 mi NNW 15.0 mph 20.7 mph N/A   Overcast
1:55 AM 30.6 °F 19.0 °F 27.3 °F 88% 30.07 in 10.0 mi NW 17.3 mph 23.0 mph N/A   Overcast
2:15 AM 30.2 °F 19.3 °F 26.4 °F 86% 30.08 in 10.0 mi NW 15.0 mph 23.0 mph N/A   Overcast
2:35 AM 29.8 °F 18.4 °F 26.4 °F 87% 30.09 in 10.0 mi NW 16.1 mph 20.7 mph N/A   Overcast
2:55 AM 28.4 °F 16.2 °F 25.3 °F 88% 30.10 in 10.0 mi NW 17.3 mph 21.9 mph N/A   Overcast
3:15 AM 28.4 °F 17.5 °F 24.8 °F 86% 30.11 in 10.0 mi NNW 13.8 mph 23.0 mph N/A   Overcast
3:35 AM 27.5 °F 15.0 °F 23.9 °F 86% 30.12 in 10.0 mi NW 17.3 mph 20.7 mph N/A   Overcast
3:55 AM 27.5 °F 17.4 °F 23.9 °F 86% 30.13 in 10.0 mi NNW 11.5 mph 23.0 mph N/A   Overcast
4:15 AM 27.1 °F 14.9 °F 23.0 °F 84% 30.14 in 10.0 mi NNW 16.1 mph 21.9 mph N/A   Overcast
4:35 AM 26.6 °F 16.8 °F 22.5 °F 84% 30.15 in 10.0 mi NNW 10.4 mph 17.3 mph N/A   Overcast
4:55 AM 26.2 °F 13.4 °F 21.9 °F 84% 30.17 in 10.0 mi NW 17.3 mph 21.9 mph N/A   Overcast
5:15 AM 25.7 °F 13.1 °F 21.2 °F 83% 30.18 in 10.0 mi NW 16.1 mph 23.0 mph N/A   Overcast
5:35 AM 25.5 °F 14.3 °F 20.8 °F 82% 30.20 in 10.0 mi NNW 12.7 mph 21.9 mph N/A   Overcast
5:55 AM 24.8 °F 14.0 °F 21.2 °F 86% 30.21 in 10.0 mi NNW 11.5 mph 19.6 mph N/A   Overcast
6:15 AM 25.2 °F 14.4 °F 20.7 °F 83% 30.21 in 10.0 mi NNW 11.5 mph - N/A   Overcast
6:35 AM 25.2 °F 15.1 °F 20.3 °F 82% 30.23 in 10.0 mi NNW 10.4 mph 16.1 mph N/A   Overcast
6:55 AM 24.8 °F 12.4 °F 20.1 °F 82% 30.25 in 10.0 mi NNW 15.0 mph - N/A   Overcast
7:15 AM 24.6 °F 13.2 °F 20.3 °F 84% 30.25 in 10.0 mi NNW 12.7 mph 17.3 mph N/A   Overcast
7:35 AM 24.6 °F 15.1 °F 20.3 °F 84% 30.27 in 10.0 mi NNW 9.2 mph - N/A   Overcast
7:55 AM 25.2 °F 16.5 °F 20.8 °F 84% 30.27 in 10.0 mi NW 8.1 mph - N/A   Overcast
8:15 AM 25.2 °F 14.4 °F 20.8 °F 84% 30.28 in 10.0 mi NNW 11.5 mph - N/A   Overcast
8:35 AM 25.5 °F 14.9 °F 21.2 °F 84% 30.29 in 10.0 mi NNW 11.5 mph 16.1 mph N/A   Overcast
8:55 AM 25.7 °F 16.4 °F 21.2 °F 83% 30.30 in 10.0 mi NNW 9.2 mph 17.3 mph N/A   Overcast
9:15 AM 25.7 °F 14.0 °F 21.0 °F 82% 30.31 in 10.0 mi NW 13.8 mph 19.6 mph N/A   Overcast
9:35 AM 26.2 °F 17.1 °F 21.4 °F 82% 30.32 in 10.0 mi NW 9.2 mph - N/A   Overcast
9:55 AM 26.6 °F 18.2 °F 21.6 °F 81% 30.33 in 10.0 mi NNW 8.1 mph - N/A   Overcast
10:15 AM 26.6 °F 17.5 °F 21.4 °F 81% 30.33 in 10.0 mi NNW 9.2 mph - N/A   Overcast
10:35 AM 26.6 °F 17.5 °F 21.4 °F 81% 30.33 in 10.0 mi NNW 9.2 mph - N/A   Overcast
10:55 AM 26.6 °F 18.2 °F 21.4 °F 81% 30.33 in 10.0 mi NNW 8.1 mph - N/A   Overcast
11:15 AM 27.1 °F 19.7 °F 21.7 °F 80% 30.34 in 10.0 mi NNW 6.9 mph - N/A   Overcast
11:35 AM 27.0 °F 19.5 °F 21.7 °F 81% 30.34 in 10.0 mi North 6.9 mph - N/A   Overcast
11:55 AM 26.8 °F 20.2 °F 21.6 °F 81% 30.35 in 10.0 mi NNW 5.8 mph - N/A   Overcast
12:15 PM 27.3 °F 20.9 °F 22.3 °F 81% 30.34 in 10.0 mi North 5.8 mph - N/A   Overcast
12:35 PM 27.5 °F 20.2 °F 21.7 °F 79% 30.34 in 10.0 mi North 6.9 mph - N/A   Overcast
12:55 PM 27.9 °F 21.5 °F 22.5 °F 80% 30.34 in 10.0 mi NW 5.8 mph - N/A   Overcast
1:15 PM 27.7 °F 20.4 °F 22.1 °F 80% 30.34 in 10.0 mi NW 6.9 mph - N/A   Overcast
1:35 PM 27.7 °F 23.8 °F 22.1 °F 80% 30.34 in 10.0 mi NNW 3.5 mph - N/A   Overcast
1:55 PM 28.2 °F 20.2 °F 22.3 °F 78% 30.34 in 10.0 mi WNW 8.1 mph - N/A   Overcast
2:15 PM 28.6 °F 22.4 °F 22.6 °F 78% 30.34 in 10.0 mi NW 5.8 mph - N/A   Overcast
2:35 PM 28.4 °F 22.2 °F 22.8 °F 80% 30.34 in 10.0 mi West 5.8 mph - N/A   Overcast
2:55 PM 28.4 °F 23.3 °F 22.5 °F 78% 30.35 in 10.0 mi NNW 4.6 mph - N/A   Overcast
3:15 PM 28.4 °F 23.3 °F 22.5 °F 78% 30.35 in 10.0 mi NNW 4.6 mph - N/A   Overcast
3:35 PM 28.4 °F 23.3 °F 22.3 °F 78% 30.35 in 10.0 mi NW 4.6 mph - N/A   Overcast
3:55 PM 28.4 °F 22.2 °F 23.5 °F 82% 30.36 in 10.0 mi WNW 5.8 mph - N/A   Overcast
4:15 PM 28.0 °F 22.8 °F 22.8 °F 81% 30.36 in 10.0 mi NW 4.6 mph - N/A   Overcast
4:35 PM 27.9 °F 21.5 °F 22.8 °F 81% 30.36 in 10.0 mi NW 5.8 mph - N/A   Overcast
4:55 PM 27.5 °F 21.1 °F 22.5 °F 81% 30.36 in 10.0 mi NW 5.8 mph - N/A   Overcast
5:15 PM 26.6 °F - 21.2 °F 80% 30.37 in 10.0 mi Calm Calm - N/A   Overcast
5:35 PM 27.1 °F 23.2 °F 21.9 °F 81% 30.37 in 10.0 mi NW 3.5 mph - N/A   Overcast
5:55 PM 27.3 °F 22.0 °F 22.1 °F 81% 30.37 in 10.0 mi NNW 4.6 mph - N/A   Overcast
6:15 PM 27.1 °F - 21.7 °F 80% 30.38 in 10.0 mi Calm Calm - N/A   Overcast
6:35 PM 27.1 °F 23.2 °F 22.3 °F 82% 30.38 in 10.0 mi NNE 3.5 mph - N/A   Overcast
6:55 PM 26.6 °F - 21.2 °F 80% 30.38 in 10.0 mi Calm Calm - N/A   Overcast
7:15 PM 27.0 °F 21.6 °F 22.1 °F 82% 30.37 in 10.0 mi NNE 4.6 mph - N/A   Overcast
7:35 PM 26.4 °F - 21.2 °F 81% 30.36 in 10.0 mi Calm Calm - N/A   Overcast
7:55 PM 26.6 °F 20.0 °F 21.9 °F 82% 30.37 in 10.0 mi NE 5.8 mph - N/A   Overcast
8:15 PM 26.6 °F - 21.9 °F 82% 30.38 in 10.0 mi Calm Calm - N/A   Overcast
8:35 PM 26.6 °F - 21.9 °F 82% 30.38 in 10.0 mi Calm Calm - N/A   Overcast
8:55 PM 26.6 °F - 21.9 °F 82% 30.38 in 10.0 mi Calm Calm - N/A   Overcast
9:15 PM 26.6 °F - 21.7 °F 82% 30.38 in 10.0 mi Calm Calm - N/A   Overcast
9:35 PM 26.4 °F 20.9 °F 21.6 °F 82% 30.38 in 10.0 mi SE 4.6 mph - N/A   Overcast
9:55 PM 26.6 °F 21.2 °F 21.9 °F 82% 30.38 in 10.0 mi ESE 4.6 mph - N/A   Overcast
10:15 PM 26.4 °F 20.9 °F 22.1 °F 84% 30.38 in 10.0 mi ESE 4.6 mph - N/A   Overcast
10:35 PM 26.4 °F 22.4 °F 21.9 °F 83% 30.38 in 10.0 mi East 3.5 mph - N/A   Overcast
10:55 PM 26.6 °F 22.6 °F 22.1 °F 83% 30.38 in 10.0 mi East 3.5 mph - N/A   Overcast
11:15 PM 26.6 °F 22.6 °F 22.1 °F 83% 30.38 in 10.0 mi East 3.5 mph - N/A   Overcast
11:35 PM 26.6 °F 21.2 °F 22.5 °F 84% 30.38 in 10.0 mi East 4.6 mph - N/A   Overcast
11:55 PM 27.0 °F 23.0 °F 22.6 °F 84% 30.38 in 10.0 mi ESE 3.5 mph - N/A   Overcast